createdAt,value
2018-05-25T00:01:54.337Z,15.00
2018-05-25T00:06:27.553Z,15.00
2018-05-25T00:11:00.742Z,15.00
2018-05-25T00:15:34.701Z,14.90
2018-05-25T00:20:07.885Z,14.80
2018-05-25T00:24:41.092Z,14.80
2018-05-25T00:29:14.333Z,14.60
2018-05-25T00:33:47.577Z,14.60
2018-05-25T00:38:20.796Z,14.60
2018-05-25T00:42:54.762Z,14.70
2018-05-25T00:47:28.018Z,14.60
2018-05-25T00:52:01.978Z,14.70
2018-05-25T00:56:35.206Z,14.70
2018-05-25T01:01:08.425Z,14.80
2018-05-25T01:05:41.637Z,14.80
2018-05-25T01:10:14.862Z,14.80
2018-05-25T01:14:48.862Z,14.80
2018-05-25T01:19:22.055Z,14.80
2018-05-25T01:23:55.247Z,14.80
2018-05-25T01:28:28.521Z,14.60
2018-05-25T01:33:02.478Z,14.40
2018-05-25T01:37:35.666Z,14.30
2018-05-25T01:42:08.890Z,14.30
2018-05-25T01:46:42.094Z,14.30
2018-05-25T01:51:15.285Z,14.40
2018-05-25T01:55:48.505Z,14.50
2018-05-25T02:00:21.705Z,14.50
2018-05-25T02:04:54.902Z,14.50
2018-05-25T02:09:28.886Z,14.60
2018-05-25T02:14:02.078Z,14.60
2018-05-25T02:18:35.295Z,14.70
2018-05-25T02:23:08.497Z,14.70
2018-05-25T02:27:41.657Z,14.70
2018-05-25T02:32:14.877Z,14.70
2018-05-25T02:36:48.382Z,14.70
2018-05-25T02:41:21.660Z,14.60
2018-05-25T02:45:54.949Z,14.60
2018-05-25T02:50:28.288Z,14.60
2018-05-25T02:55:02.350Z,14.60
2018-05-25T02:59:35.574Z,14.50
2018-05-25T03:04:08.804Z,14.50
2018-05-25T03:08:42.785Z,14.50
2018-05-25T03:13:15.982Z,14.50
2018-05-25T03:17:49.170Z,14.40
2018-05-25T03:22:23.191Z,14.40
2018-05-25T03:26:57.255Z,14.30
2018-05-25T03:31:30.478Z,14.30
2018-05-25T03:36:03.836Z,14.20
2018-05-25T03:40:37.833Z,14.20
2018-05-25T03:45:11.000Z,14.20
2018-05-25T03:49:44.194Z,14.20
2018-05-25T03:54:17.445Z,14.30
2018-05-25T03:59:02.424Z,14.30
2018-05-25T04:03:35.615Z,14.30
2018-05-25T04:08:08.834Z,14.30
2018-05-25T04:12:42.030Z,14.30
2018-05-25T04:17:16.133Z,14.20
2018-05-25T04:21:49.351Z,14.10
2018-05-25T04:26:22.857Z,14.10
2018-05-25T04:30:56.137Z,14.10
2018-05-25T04:35:30.169Z,14.30
2018-05-25T04:40:06.363Z,14.30
2018-05-25T04:44:40.382Z,14.30
2018-05-25T04:49:13.578Z,14.30
2018-05-25T04:53:47.547Z,14.50
2018-05-25T04:58:20.918Z,14.40
2018-05-25T05:02:55.073Z,14.60
2018-05-25T05:07:28.343Z,14.50
2018-05-25T05:12:02.322Z,14.70
2018-05-25T05:16:35.485Z,14.70
2018-05-25T05:21:09.443Z,14.80
2018-05-25T05:25:42.650Z,14.80
2018-05-25T05:30:15.848Z,14.90
2018-05-25T05:34:49.054Z,14.90
2018-05-25T05:39:22.301Z,15.00
2018-05-25T05:43:55.522Z,15.00
2018-05-25T05:48:28.714Z,15.10
2018-05-25T05:53:01.906Z,15.20
2018-05-25T05:57:35.129Z,15.30
2018-05-25T06:02:08.324Z,15.30
2018-05-25T06:06:41.514Z,15.40
2018-05-25T06:11:14.705Z,15.50
2018-05-25T06:15:47.901Z,15.50
2018-05-25T06:20:21.138Z,15.60
2018-05-25T06:24:54.354Z,15.70
2018-05-25T06:29:27.577Z,15.80
2018-05-25T06:34:00.798Z,15.80
2018-05-25T06:38:34.786Z,15.90
2018-05-25T06:43:08.006Z,15.80
2018-05-25T06:47:41.198Z,16.10
2018-05-25T06:52:14.370Z,16.20
2018-05-25T06:56:47.662Z,16.20
2018-05-25T07:01:21.642Z,16.50
2018-05-25T07:05:54.992Z,16.40
2018-05-25T07:10:28.948Z,16.70
2018-05-25T07:15:02.178Z,16.70
2018-05-25T07:19:35.387Z,16.90
2018-05-25T07:24:08.609Z,16.90
2018-05-25T07:28:41.804Z,17.00
2018-05-25T07:33:15.026Z,17.00
2018-05-25T07:37:49.754Z,17.20
2018-05-25T07:42:22.955Z,17.20
2018-05-25T07:46:56.219Z,17.30
2018-05-25T07:51:30.206Z,17.40
2018-05-25T07:56:03.414Z,17.40
2018-05-25T08:00:36.619Z,17.60
2018-05-25T08:05:10.498Z,17.80
2018-05-25T08:09:43.686Z,17.80
2018-05-25T08:14:17.637Z,18.20
2018-05-25T08:18:50.876Z,18.20
2018-05-25T08:23:24.061Z,18.50
2018-05-25T08:27:57.342Z,18.80
2018-05-25T08:32:30.563Z,19.20
2018-05-25T08:37:03.777Z,19.70
2018-05-25T08:41:36.990Z,20.20
2018-05-25T08:46:10.213Z,20.50
2018-05-25T08:50:43.794Z,21.90
2018-05-25T08:55:16.989Z,24.50
2018-05-25T08:59:50.183Z,24.70
2018-05-25T09:04:24.190Z,27.30
2018-05-25T09:08:57.423Z,27.20
2018-05-25T09:13:30.653Z,28.30
2018-05-25T09:18:03.854Z,28.80
2018-05-25T09:22:37.062Z,29.00
2018-05-25T09:27:10.314Z,29.10
2018-05-25T09:31:43.545Z,29.20
2018-05-25T09:36:17.525Z,28.10
2018-05-25T09:40:50.741Z,28.10
2018-05-25T09:45:23.961Z,29.60
2018-05-25T09:49:57.337Z,30.60
2018-05-25T09:54:30.525Z,31.50
2018-05-25T09:59:03.778Z,31.90
2018-05-25T10:03:37.030Z,32.20
2018-05-25T10:08:10.199Z,32.40
2018-05-25T10:12:43.463Z,32.70
2018-05-25T10:17:16.678Z,32.90
2018-05-25T10:21:49.890Z,33.00
2018-05-25T10:26:23.098Z,33.10
2018-05-25T10:30:56.322Z,33.50
2018-05-25T10:35:29.505Z,33.70
2018-05-25T10:40:02.719Z,33.30
2018-05-25T10:44:35.992Z,33.40
2018-05-25T10:49:09.392Z,33.70
2018-05-25T10:53:43.361Z,33.80
2018-05-25T10:58:16.546Z,33.70
2018-05-25T11:02:49.802Z,33.70
2018-05-25T11:07:22.957Z,34.10
2018-05-25T11:11:56.405Z,34.00
2018-05-25T11:16:29.652Z,33.80
2018-05-25T11:21:03.684Z,34.60
2018-05-25T11:25:37.685Z,34.80
2018-05-25T11:30:10.871Z,34.70
2018-05-25T11:34:44.201Z,34.60
2018-05-25T11:39:17.389Z,34.60
2018-05-25T11:43:50.737Z,35.10
2018-05-25T11:48:24.697Z,35.40
2018-05-25T11:52:57.953Z,35.30
2018-05-25T11:57:31.106Z,34.80
2018-05-25T12:02:04.382Z,34.20
2018-05-25T12:06:38.350Z,34.10
2018-05-25T12:11:11.586Z,34.10
2018-05-25T12:15:44.765Z,34.70
2018-05-25T12:20:17.990Z,35.00
2018-05-25T12:24:51.195Z,35.20
2018-05-25T12:29:24.412Z,35.50
2018-05-25T12:33:57.643Z,35.70
2018-05-25T12:38:31.629Z,36.00
2018-05-25T12:43:04.794Z,35.90
2018-05-25T12:47:38.022Z,35.60
2018-05-25T12:52:11.260Z,35.60
2018-05-25T12:56:44.673Z,35.00
2018-05-25T13:01:17.866Z,34.90
2018-05-25T13:05:51.023Z,34.60
2018-05-25T13:10:24.998Z,35.20
2018-05-25T13:14:58.161Z,35.10
2018-05-25T13:19:31.390Z,35.20
2018-05-25T13:24:04.667Z,34.70
2018-05-25T13:28:37.970Z,33.90
2018-05-25T13:33:11.969Z,31.80
2018-05-25T13:37:45.317Z,31.70
2018-05-25T13:42:19.007Z,31.50
2018-05-25T13:46:52.916Z,31.40
2018-05-25T13:51:27.846Z,31.10
2018-05-25T13:56:01.353Z,31.00
2018-05-25T14:00:34.622Z,30.90
2018-05-25T14:05:08.657Z,30.50
2018-05-25T14:09:41.897Z,30.40
2018-05-25T14:14:15.105Z,30.40
2018-05-25T14:18:48.322Z,30.20
2018-05-25T14:23:21.511Z,30.20
2018-05-25T14:27:54.777Z,30.50
2018-05-25T14:32:28.721Z,30.10
2018-05-25T14:37:02.010Z,30.10
2018-05-25T14:41:36.003Z,30.00
2018-05-25T14:46:09.238Z,29.90
2018-05-25T14:50:43.594Z,30.10
2018-05-25T14:55:16.803Z,30.10
2018-05-25T14:59:50.061Z,30.20
2018-05-25T15:04:23.294Z,30.10
2018-05-25T15:08:57.285Z,29.90
2018-05-25T15:13:30.938Z,29.90
2018-05-25T15:18:04.890Z,29.00
2018-05-25T15:22:38.390Z,28.90
2018-05-25T15:27:12.344Z,28.40
2018-05-25T15:31:45.575Z,28.30
2018-05-25T15:36:18.831Z,28.30
2018-05-25T15:40:52.055Z,28.20
2018-05-25T15:45:25.270Z,28.10
2018-05-25T15:49:58.446Z,28.00
2018-05-25T15:54:37.646Z,28.10
2018-05-25T15:59:11.165Z,28.00
2018-05-25T16:03:45.010Z,28.40
2018-05-25T16:08:20.186Z,28.50
2018-05-25T16:12:57.685Z,28.50
2018-05-25T16:17:31.026Z,28.60
2018-05-25T16:22:04.679Z,28.30
2018-05-25T16:26:37.871Z,28.10
2018-05-25T16:31:11.077Z,27.90
2018-05-25T16:35:44.289Z,27.70
2018-05-25T16:40:17.515Z,27.60
2018-05-25T16:44:51.507Z,27.40
2018-05-25T16:49:24.742Z,27.40
2018-05-25T16:53:57.926Z,27.30
2018-05-25T16:58:31.114Z,27.20
2018-05-25T17:03:04.294Z,27.20
2018-05-25T17:07:37.519Z,27.10
2018-05-25T17:12:10.725Z,26.90
2018-05-25T17:16:43.910Z,26.80
2018-05-25T17:21:17.950Z,26.50
2018-05-25T17:25:51.105Z,26.50
2018-05-25T17:30:24.334Z,26.50
2018-05-25T17:34:57.535Z,26.40
2018-05-25T17:39:30.778Z,26.30
2018-05-25T17:44:04.062Z,26.30
2018-05-25T17:48:38.011Z,26.10
2018-05-25T17:53:11.226Z,26.00
2018-05-25T17:57:44.412Z,26.00
2018-05-25T18:02:17.600Z,25.90
2018-05-25T18:06:50.790Z,25.80
2018-05-25T18:11:23.994Z,25.70
2018-05-25T18:15:57.182Z,25.60
2018-05-25T18:20:30.397Z,25.50
2018-05-25T18:25:03.558Z,25.30
2018-05-25T18:29:36.775Z,25.10
2018-05-25T18:34:09.931Z,24.90
2018-05-25T18:38:43.147Z,24.60
2018-05-25T18:43:16.365Z,24.40
2018-05-25T18:47:50.379Z,24.00
2018-05-25T18:52:23.563Z,23.90
2018-05-25T18:56:56.722Z,23.70
2018-05-25T19:01:29.984Z,23.40
2018-05-25T19:06:03.175Z,23.10
2018-05-25T19:10:36.366Z,22.80
2018-05-25T19:15:09.585Z,22.60
2018-05-25T19:19:42.794Z,22.40
2018-05-25T19:24:16.014Z,22.10
2018-05-25T19:28:49.353Z,21.80
2018-05-25T19:33:23.282Z,21.30
2018-05-25T19:37:57.234Z,21.10
2018-05-25T19:42:30.430Z,21.00
2018-05-25T19:47:03.635Z,20.90
2018-05-25T19:51:36.793Z,20.70
2018-05-25T19:56:09.984Z,20.60
2018-05-25T20:00:43.182Z,20.40
2018-05-25T20:05:16.382Z,20.20
2018-05-25T20:09:49.625Z,20.10
2018-05-25T20:14:22.802Z,20.00
2018-05-25T20:18:55.982Z,19.90
2018-05-25T20:23:29.411Z,19.80
2018-05-25T20:28:02.646Z,19.70
2018-05-25T20:32:35.995Z,19.60
2018-05-25T20:37:09.327Z,19.50
2018-05-25T20:41:42.601Z,19.40
2018-05-25T20:46:17.636Z,19.10
2018-05-25T20:50:50.841Z,19.00
2018-05-25T20:55:25.299Z,18.90
2018-05-25T20:59:58.626Z,18.80
2018-05-25T21:04:32.006Z,18.70
2018-05-25T21:09:06.899Z,18.40
2018-05-25T21:13:40.083Z,18.40
2018-05-25T21:18:18.194Z,18.30
2018-05-25T21:22:55.313Z,18.20
2018-05-25T21:27:31.221Z,18.10
2018-05-25T21:32:05.230Z,18.00
2018-05-25T21:36:38.414Z,18.00
2018-05-25T21:41:11.594Z,17.90
2018-05-25T21:45:45.547Z,17.80
2018-05-25T21:50:18.855Z,17.80
2018-05-25T21:54:52.022Z,17.70
2018-05-25T21:59:25.269Z,17.70
2018-05-25T22:03:58.461Z,17.60
2018-05-25T22:08:32.603Z,17.40
2018-05-25T22:13:05.926Z,17.40
2018-05-25T22:17:39.486Z,17.40
2018-05-25T22:22:12.829Z,17.30
2018-05-25T22:26:46.055Z,17.20
2018-05-25T22:31:22.927Z,17.20
2018-05-25T22:35:56.166Z,17.10
2018-05-25T22:40:29.836Z,17.00
2018-05-25T22:45:15.124Z,16.90
2018-05-25T22:50:01.103Z,16.60
2018-05-25T22:54:40.063Z,16.60
2018-05-25T22:59:14.054Z,16.60
2018-05-25T23:03:47.277Z,16.50
2018-05-25T23:08:20.538Z,16.60
2018-05-25T23:12:54.187Z,16.50
2018-05-25T23:17:27.401Z,16.40
2018-05-25T23:22:02.959Z,16.40
2018-05-25T23:26:36.274Z,16.30
2018-05-25T23:31:09.513Z,16.30
2018-05-25T23:35:43.470Z,16.10
2018-05-25T23:40:16.819Z,16.00
2018-05-25T23:44:50.249Z,16.10
2018-05-25T23:49:23.438Z,16.10
2018-05-25T23:53:57.425Z,15.90
2018-05-25T23:58:30.626Z,15.90
